Terminal Aerodrome Forecast
Issued by NWS Cleveland, OH

Home | Current Version | Previous Version | Graphics & Text | Print | Product List | Glossary Off
Versions: 1 2 3 4 5 6 7 8 9 10 11 12 13 14 15 16 17

000
FTUS41 KCLE 192329
TAFMFD
TAF
KMFD 192329Z 2000/2024 20003KT P6SM SCT028 BKN100
      TEMPO 2002/2006 BKN028
     FM200600 00000KT P6SM BKN028
      TEMPO 2006/2009 5SM BR
     FM200900 00000KT 1 1/2SM BR BKN012
      TEMPO 2009/2013 1SM BR BKN008
     FM201400 00000KT P6SM BKN015
     FM201700 23005KT P6SM BKN035
     FM201900 24005KT P6SM BKN050=

USA.gov is the U.S. government's official web portal to all federal, state and local government web resources and services.